sensor_id;sensor_type;location;lat;lon;timestamp;P1;durP1;ratioP1;P2;durP2;ratioP2
14080;SDS011;7116;52.152;5.392;2022-10-23T00:01:42;13.30;;;8.07;;
14080;SDS011;7116;52.152;5.392;2022-10-23T00:04:10;12.75;;;7.85;;
14080;SDS011;7116;52.152;5.392;2022-10-23T00:06:36;13.38;;;8.43;;
14080;SDS011;7116;52.152;5.392;2022-10-23T00:09:02;15.40;;;7.77;;
14080;SDS011;7116;52.152;5.392;2022-10-23T00:11:28;13.93;;;8.27;;
14080;SDS011;7116;52.152;5.392;2022-10-23T00:13:55;17.70;;;8.77;;
14080;SDS011;7116;52.152;5.392;2022-10-23T00:16:20;11.55;;;7.30;;
14080;SDS011;7116;52.152;5.392;2022-10-23T00:18:46;15.77;;;7.97;;
14080;SDS011;7116;52.152;5.392;2022-10-23T00:21:11;15.70;;;7.97;;
14080;SDS011;7116;52.152;5.392;2022-10-23T00:23:37;12.32;;;7.65;;
14080;SDS011;7116;52.152;5.392;2022-10-23T00:26:03;13.13;;;7.60;;
14080;SDS011;7116;52.152;5.392;2022-10-23T00:28:28;11.67;;;7.93;;
14080;SDS011;7116;52.152;5.392;2022-10-23T00:30:53;15.73;;;7.83;;
14080;SDS011;7116;52.152;5.392;2022-10-23T00:33:18;16.17;;;8.40;;
14080;SDS011;7116;52.152;5.392;2022-10-23T00:35:44;11.90;;;7.37;;
14080;SDS011;7116;52.152;5.392;2022-10-23T00:38:11;12.50;;;7.63;;
14080;SDS011;7116;52.152;5.392;2022-10-23T00:40:36;15.57;;;8.02;;
14080;SDS011;7116;52.152;5.392;2022-10-23T00:43:02;11.90;;;7.33;;
14080;SDS011;7116;52.152;5.392;2022-10-23T00:45:28;15.82;;;7.32;;
14080;SDS011;7116;52.152;5.392;2022-10-23T00:47:57;13.10;;;8.10;;
14080;SDS011;7116;52.152;5.392;2022-10-23T00:50:24;10.15;;;7.40;;
14080;SDS011;7116;52.152;5.392;2022-10-23T00:52:50;11.25;;;7.55;;
14080;SDS011;7116;52.152;5.392;2022-10-23T00:55:17;15.17;;;7.13;;
14080;SDS011;7116;52.152;5.392;2022-10-23T00:57:43;13.20;;;7.40;;
14080;SDS011;7116;52.152;5.392;2022-10-23T01:00:11;15.32;;;8.02;;
14080;SDS011;7116;52.152;5.392;2022-10-23T01:02:37;8.82;;;6.43;;
14080;SDS011;7116;52.152;5.392;2022-10-23T01:05:02;16.77;;;8.43;;
14080;SDS011;7116;52.152;5.392;2022-10-23T01:07:29;10.93;;;6.97;;
14080;SDS011;7116;52.152;5.392;2022-10-23T01:12:28;11.53;;;6.50;;
14080;SDS011;7116;52.152;5.392;2022-10-23T01:17:37;11.50;;;6.78;;
14080;SDS011;7116;52.152;5.392;2022-10-23T01:25:38;16.38;;;7.38;;
14080;SDS011;7116;52.152;5.392;2022-10-23T01:28:08;12.13;;;7.57;;
14080;SDS011;7116;52.152;5.392;2022-10-23T01:30:34;12.65;;;8.00;;
14080;SDS011;7116;52.152;5.392;2022-10-23T01:33:09;9.60;;;6.20;;
14080;SDS011;7116;52.152;5.392;2022-10-23T01:35:39;14.05;;;7.85;;
14080;SDS011;7116;52.152;5.392;2022-10-23T01:38:11;10.07;;;7.10;;
14080;SDS011;7116;52.152;5.392;2022-10-23T01:40:48;11.70;;;6.50;;
14080;SDS011;7116;52.152;5.392;2022-10-23T01:43:37;14.65;;;7.63;;
14080;SDS011;7116;52.152;5.392;2022-10-23T01:46:01;9.57;;;7.32;;
14080;SDS011;7116;52.152;5.392;2022-10-23T01:48:27;11.45;;;6.47;;
14080;SDS011;7116;52.152;5.392;2022-10-23T01:50:54;10.82;;;6.60;;
14080;SDS011;7116;52.152;5.392;2022-10-23T01:53:19;10.13;;;7.23;;
14080;SDS011;7116;52.152;5.392;2022-10-23T01:55:45;13.88;;;7.10;;
14080;SDS011;7116;52.152;5.392;2022-10-23T01:58:11;12.35;;;7.28;;
14080;SDS011;7116;52.152;5.392;2022-10-23T02:00:37;16.40;;;7.30;;
14080;SDS011;7116;52.152;5.392;2022-10-23T02:03:03;10.82;;;6.55;;
14080;SDS011;7116;52.152;5.392;2022-10-23T02:05:30;11.63;;;6.53;;
14080;SDS011;7116;52.152;5.392;2022-10-23T02:07:56;13.10;;;7.43;;
14080;SDS011;7116;52.152;5.392;2022-10-23T02:10:22;12.88;;;7.20;;
14080;SDS011;7116;52.152;5.392;2022-10-23T02:20:21;10.93;;;6.37;;
14080;SDS011;7116;52.152;5.392;2022-10-23T02:22:51;13.32;;;7.55;;
14080;SDS011;7116;52.152;5.392;2022-10-23T02:25:20;11.77;;;6.55;;
14080;SDS011;7116;52.152;5.392;2022-10-23T02:27:47;11.70;;;7.72;;
14080;SDS011;7116;52.152;5.392;2022-10-23T02:30:15;12.07;;;6.63;;
14080;SDS011;7116;52.152;5.392;2022-10-23T02:32:48;12.57;;;7.77;;
14080;SDS011;7116;52.152;5.392;2022-10-23T02:35:14;11.95;;;7.18;;
14080;SDS011;7116;52.152;5.392;2022-10-23T02:37:40;11.05;;;6.03;;
14080;SDS011;7116;52.152;5.392;2022-10-23T02:40:08;14.70;;;6.30;;
14080;SDS011;7116;52.152;5.392;2022-10-23T02:45:39;12.87;;;6.00;;
14080;SDS011;7116;52.152;5.392;2022-10-23T02:48:52;13.93;;;6.40;;
14080;SDS011;7116;52.152;5.392;2022-10-23T02:51:25;11.95;;;6.35;;
14080;SDS011;7116;52.152;5.392;2022-10-23T02:53:46;13.60;;;6.47;;
14080;SDS011;7116;52.152;5.392;2022-10-23T02:56:15;8.93;;;6.65;;
14080;SDS011;7116;52.152;5.392;2022-10-23T02:58:50;9.20;;;6.03;;
14080;SDS011;7116;52.152;5.392;2022-10-23T03:01:21;11.55;;;6.32;;
14080;SDS011;7116;52.152;5.392;2022-10-23T03:03:49;12.98;;;6.93;;
14080;SDS011;7116;52.152;5.392;2022-10-23T03:06:16;9.90;;;6.13;;
14080;SDS011;7116;52.152;5.392;2022-10-23T03:08:48;14.57;;;6.07;;
14080;SDS011;7116;52.152;5.392;2022-10-23T03:11:13;9.13;;;5.88;;
14080;SDS011;7116;52.152;5.392;2022-10-23T03:13:38;12.47;;;5.83;;
14080;SDS011;7116;52.152;5.392;2022-10-23T03:16:04;13.83;;;5.87;;
14080;SDS011;7116;52.152;5.392;2022-10-23T03:18:29;15.23;;;5.50;;
14080;SDS011;7116;52.152;5.392;2022-10-23T03:20:55;11.27;;;6.10;;
14080;SDS011;7116;52.152;5.392;2022-10-23T03:23:20;12.17;;;6.43;;
14080;SDS011;7116;52.152;5.392;2022-10-23T03:25:46;12.10;;;7.00;;
14080;SDS011;7116;52.152;5.392;2022-10-23T03:28:11;13.80;;;6.30;;
14080;SDS011;7116;52.152;5.392;2022-10-23T03:30:36;11.03;;;5.97;;
14080;SDS011;7116;52.152;5.392;2022-10-23T03:33:01;10.10;;;6.40;;
14080;SDS011;7116;52.152;5.392;2022-10-23T03:35:26;11.47;;;6.13;;
14080;SDS011;7116;52.152;5.392;2022-10-23T03:37:52;13.37;;;6.93;;
14080;SDS011;7116;52.152;5.392;2022-10-23T03:40:17;14.07;;;7.20;;
14080;SDS011;7116;52.152;5.392;2022-10-23T03:42:42;12.70;;;6.50;;
14080;SDS011;7116;52.152;5.392;2022-10-23T03:45:07;19.13;;;6.87;;
14080;SDS011;7116;52.152;5.392;2022-10-23T03:47:32;17.97;;;7.70;;
14080;SDS011;7116;52.152;5.392;2022-10-23T03:49:59;14.35;;;7.65;;
14080;SDS011;7116;52.152;5.392;2022-10-23T03:52:24;16.67;;;7.27;;
14080;SDS011;7116;52.152;5.392;2022-10-23T03:54:49;15.50;;;8.07;;
14080;SDS011;7116;52.152;5.392;2022-10-23T03:57:14;17.57;;;7.70;;
14080;SDS011;7116;52.152;5.392;2022-10-23T03:59:40;15.30;;;8.03;;
14080;SDS011;7116;52.152;5.392;2022-10-23T04:02:05;17.60;;;7.13;;
14080;SDS011;7116;52.152;5.392;2022-10-23T04:04:30;15.00;;;7.00;;
14080;SDS011;7116;52.152;5.392;2022-10-23T04:06:55;20.67;;;7.80;;
14080;SDS011;7116;52.152;5.392;2022-10-23T04:09:20;19.53;;;7.03;;
14080;SDS011;7116;52.152;5.392;2022-10-23T04:11:46;14.30;;;6.87;;
14080;SDS011;7116;52.152;5.392;2022-10-23T04:14:11;19.70;;;6.87;;
14080;SDS011;7116;52.152;5.392;2022-10-23T04:16:37;11.85;;;6.50;;
14080;SDS011;7116;52.152;5.392;2022-10-23T04:19:02;8.90;;;5.70;;
14080;SDS011;7116;52.152;5.392;2022-10-23T04:21:27;14.03;;;5.80;;
14080;SDS011;7116;52.152;5.392;2022-10-23T04:23:55;9.77;;;6.30;;
14080;SDS011;7116;52.152;5.392;2022-10-23T04:26:20;11.23;;;5.77;;
14080;SDS011;7116;52.152;5.392;2022-10-23T04:28:45;11.17;;;5.77;;
14080;SDS011;7116;52.152;5.392;2022-10-23T04:31:10;11.63;;;5.83;;
14080;SDS011;7116;52.152;5.392;2022-10-23T04:33:36;11.48;;;5.53;;
14080;SDS011;7116;52.152;5.392;2022-10-23T04:36:01;11.47;;;5.57;;
14080;SDS011;7116;52.152;5.392;2022-10-23T04:38:26;10.50;;;5.57;;
14080;SDS011;7116;52.152;5.392;2022-10-23T04:40:51;12.30;;;6.47;;
14080;SDS011;7116;52.152;5.392;2022-10-23T04:43:16;13.70;;;5.83;;
14080;SDS011;7116;52.152;5.392;2022-10-23T04:45:42;9.87;;;5.50;;
14080;SDS011;7116;52.152;5.392;2022-10-23T04:48:07;10.00;;;5.30;;
14080;SDS011;7116;52.152;5.392;2022-10-23T04:50:32;9.30;;;5.47;;
14080;SDS011;7116;52.152;5.392;2022-10-23T04:52:57;8.23;;;6.03;;
14080;SDS011;7116;52.152;5.392;2022-10-23T04:55:23;9.63;;;5.73;;
14080;SDS011;7116;52.152;5.392;2022-10-23T04:57:49;13.38;;;5.40;;
14080;SDS011;7116;52.152;5.392;2022-10-23T05:00:14;10.03;;;4.97;;
14080;SDS011;7116;52.152;5.392;2022-10-23T05:02:40;7.87;;;4.90;;
14080;SDS011;7116;52.152;5.392;2022-10-23T05:05:06;11.47;;;5.60;;
14080;SDS011;7116;52.152;5.392;2022-10-23T05:07:31;13.43;;;5.53;;
14080;SDS011;7116;52.152;5.392;2022-10-23T05:09:56;11.47;;;5.50;;
14080;SDS011;7116;52.152;5.392;2022-10-23T05:12:21;10.80;;;5.53;;
14080;SDS011;7116;52.152;5.392;2022-10-23T05:14:49;9.80;;;4.88;;
14080;SDS011;7116;52.152;5.392;2022-10-23T05:17:15;11.87;;;5.50;;
14080;SDS011;7116;52.152;5.392;2022-10-23T05:19:42;8.23;;;4.95;;
14080;SDS011;7116;52.152;5.392;2022-10-23T05:22:08;10.90;;;5.00;;
14080;SDS011;7116;52.152;5.392;2022-10-23T05:24:33;13.05;;;4.88;;
14080;SDS011;7116;52.152;5.392;2022-10-23T05:26:58;11.67;;;5.20;;
14080;SDS011;7116;52.152;5.392;2022-10-23T05:29:23;15.13;;;5.50;;
14080;SDS011;7116;52.152;5.392;2022-10-23T05:31:49;11.47;;;4.90;;
14080;SDS011;7116;52.152;5.392;2022-10-23T05:34:16;8.00;;;5.27;;
14080;SDS011;7116;52.152;5.392;2022-10-23T05:36:43;8.55;;;4.95;;
14080;SDS011;7116;52.152;5.392;2022-10-23T05:39:09;8.52;;;5.25;;
14080;SDS011;7116;52.152;5.392;2022-10-23T05:41:34;7.60;;;4.40;;
14080;SDS011;7116;52.152;5.392;2022-10-23T05:43:59;7.77;;;4.87;;
14080;SDS011;7116;52.152;5.392;2022-10-23T05:46:24;12.17;;;4.97;;
14080;SDS011;7116;52.152;5.392;2022-10-23T05:48:51;8.43;;;4.47;;
14080;SDS011;7116;52.152;5.392;2022-10-23T05:51:17;8.07;;;5.13;;
14080;SDS011;7116;52.152;5.392;2022-10-23T05:53:46;8.20;;;5.03;;
14080;SDS011;7116;52.152;5.392;2022-10-23T05:56:11;7.17;;;4.63;;
14080;SDS011;7116;52.152;5.392;2022-10-23T05:58:36;10.63;;;4.90;;
14080;SDS011;7116;52.152;5.392;2022-10-23T06:01:08;8.53;;;5.03;;
14080;SDS011;7116;52.152;5.392;2022-10-23T06:03:34;10.85;;;5.13;;
14080;SDS011;7116;52.152;5.392;2022-10-23T06:05:59;13.07;;;5.80;;
14080;SDS011;7116;52.152;5.392;2022-10-23T06:08:24;7.30;;;4.80;;
14080;SDS011;7116;52.152;5.392;2022-10-23T06:10:49;7.83;;;5.27;;
14080;SDS011;7116;52.152;5.392;2022-10-23T06:13:14;9.57;;;5.23;;
14080;SDS011;7116;52.152;5.392;2022-10-23T06:15:39;10.83;;;5.20;;
14080;SDS011;7116;52.152;5.392;2022-10-23T06:18:05;7.63;;;5.23;;
14080;SDS011;7116;52.152;5.392;2022-10-23T06:20:30;9.73;;;5.10;;
14080;SDS011;7116;52.152;5.392;2022-10-23T06:22:55;11.03;;;5.17;;
14080;SDS011;7116;52.152;5.392;2022-10-23T06:25:20;8.00;;;5.00;;
14080;SDS011;7116;52.152;5.392;2022-10-23T06:27:46;6.97;;;5.07;;
14080;SDS011;7116;52.152;5.392;2022-10-23T06:30:11;10.70;;;5.00;;
14080;SDS011;7116;52.152;5.392;2022-10-23T06:32:36;11.37;;;5.37;;
14080;SDS011;7116;52.152;5.392;2022-10-23T06:35:01;11.73;;;5.37;;
14080;SDS011;7116;52.152;5.392;2022-10-23T06:37:27;12.63;;;4.87;;
14080;SDS011;7116;52.152;5.392;2022-10-23T06:39:52;11.52;;;5.45;;
14080;SDS011;7116;52.152;5.392;2022-10-23T06:42:17;10.37;;;4.73;;
14080;SDS011;7116;52.152;5.392;2022-10-23T06:44:42;11.73;;;5.20;;
14080;SDS011;7116;52.152;5.392;2022-10-23T06:47:07;8.30;;;4.97;;
14080;SDS011;7116;52.152;5.392;2022-10-23T06:49:34;10.50;;;5.75;;
14080;SDS011;7116;52.152;5.392;2022-10-23T06:51:59;8.25;;;4.75;;
14080;SDS011;7116;52.152;5.392;2022-10-23T06:54:24;9.45;;;4.50;;
14080;SDS011;7116;52.152;5.392;2022-10-23T06:56:50;11.90;;;5.10;;
14080;SDS011;7116;52.152;5.392;2022-10-23T06:59:15;8.33;;;4.90;;
14080;SDS011;7116;52.152;5.392;2022-10-23T07:01:40;10.60;;;4.60;;
14080;SDS011;7116;52.152;5.392;2022-10-23T07:04:05;10.43;;;5.03;;
14080;SDS011;7116;52.152;5.392;2022-10-23T07:06:31;11.70;;;5.10;;
14080;SDS011;7116;52.152;5.392;2022-10-23T07:08:56;12.17;;;5.40;;
14080;SDS011;7116;52.152;5.392;2022-10-23T07:11:21;11.20;;;5.30;;
14080;SDS011;7116;52.152;5.392;2022-10-23T07:13:47;10.13;;;5.23;;
14080;SDS011;7116;52.152;5.392;2022-10-23T07:16:13;14.33;;;5.90;;
14080;SDS011;7116;52.152;5.392;2022-10-23T07:18:39;11.55;;;5.03;;
14080;SDS011;7116;52.152;5.392;2022-10-23T07:21:04;14.53;;;5.43;;
14080;SDS011;7116;52.152;5.392;2022-10-23T07:23:29;9.47;;;4.83;;
14080;SDS011;7116;52.152;5.392;2022-10-23T07:25:54;14.70;;;5.30;;
14080;SDS011;7116;52.152;5.392;2022-10-23T07:28:19;10.97;;;5.57;;
14080;SDS011;7116;52.152;5.392;2022-10-23T07:30:54;13.70;;;5.27;;
14080;SDS011;7116;52.152;5.392;2022-10-23T07:33:19;11.80;;;5.05;;
14080;SDS011;7116;52.152;5.392;2022-10-23T07:35:44;14.50;;;5.97;;
14080;SDS011;7116;52.152;5.392;2022-10-23T07:38:11;8.30;;;4.93;;
14080;SDS011;7116;52.152;5.392;2022-10-23T07:40:37;10.43;;;5.40;;
14080;SDS011;7116;52.152;5.392;2022-10-23T07:43:02;10.20;;;4.85;;
14080;SDS011;7116;52.152;5.392;2022-10-23T07:45:28;10.45;;;5.35;;
14080;SDS011;7116;52.152;5.392;2022-10-23T07:47:53;8.80;;;5.45;;
14080;SDS011;7116;52.152;5.392;2022-10-23T07:50:18;10.90;;;4.85;;
14080;SDS011;7116;52.152;5.392;2022-10-23T07:52:43;9.60;;;5.95;;
14080;SDS011;7116;52.152;5.392;2022-10-23T07:55:08;7.80;;;5.23;;
14080;SDS011;7116;52.152;5.392;2022-10-23T07:57:34;13.57;;;5.47;;
14080;SDS011;7116;52.152;5.392;2022-10-23T07:59:59;15.07;;;5.43;;
14080;SDS011;7116;52.152;5.392;2022-10-23T08:02:24;9.27;;;4.73;;
14080;SDS011;7116;52.152;5.392;2022-10-23T08:04:49;11.45;;;5.00;;
14080;SDS011;7116;52.152;5.392;2022-10-23T08:07:14;12.70;;;4.90;;
14080;SDS011;7116;52.152;5.392;2022-10-23T08:09:39;9.27;;;4.90;;
14080;SDS011;7116;52.152;5.392;2022-10-23T08:12:05;16.10;;;5.60;;
14080;SDS011;7116;52.152;5.392;2022-10-23T08:14:30;12.57;;;5.23;;
14080;SDS011;7116;52.152;5.392;2022-10-23T08:16:55;8.37;;;5.30;;
14080;SDS011;7116;52.152;5.392;2022-10-23T08:19:20;10.57;;;5.00;;
14080;SDS011;7116;52.152;5.392;2022-10-23T08:21:46;11.20;;;4.50;;
14080;SDS011;7116;52.152;5.392;2022-10-23T08:24:11;10.53;;;4.93;;
14080;SDS011;7116;52.152;5.392;2022-10-23T08:26:39;8.30;;;4.83;;
14080;SDS011;7116;52.152;5.392;2022-10-23T08:29:04;7.73;;;4.70;;
14080;SDS011;7116;52.152;5.392;2022-10-23T08:31:29;7.57;;;4.87;;
14080;SDS011;7116;52.152;5.392;2022-10-23T08:33:54;12.53;;;4.40;;
14080;SDS011;7116;52.152;5.392;2022-10-23T08:36:21;8.53;;;4.93;;
14080;SDS011;7116;52.152;5.392;2022-10-23T08:38:46;9.80;;;4.60;;
14080;SDS011;7116;52.152;5.392;2022-10-23T08:41:22;10.63;;;4.97;;
14080;SDS011;7116;52.152;5.392;2022-10-23T08:43:47;7.87;;;4.40;;
14080;SDS011;7116;52.152;5.392;2022-10-23T08:46:16;10.90;;;5.15;;
14080;SDS011;7116;52.152;5.392;2022-10-23T08:48:48;9.23;;;5.13;;
14080;SDS011;7116;52.152;5.392;2022-10-23T08:51:21;9.90;;;4.43;;
14080;SDS011;7116;52.152;5.392;2022-10-23T08:53:55;15.77;;;5.65;;
14080;SDS011;7116;52.152;5.392;2022-10-23T08:56:23;6.17;;;4.13;;
14080;SDS011;7116;52.152;5.392;2022-10-23T08:59:06;10.88;;;5.38;;
14080;SDS011;7116;52.152;5.392;2022-10-23T09:04:02;12.18;;;5.63;;
14080;SDS011;7116;52.152;5.392;2022-10-23T09:06:33;7.43;;;4.60;;
14080;SDS011;7116;52.152;5.392;2022-10-23T09:11:45;9.25;;;4.43;;
14080;SDS011;7116;52.152;5.392;2022-10-23T09:14:21;7.90;;;4.45;;
14080;SDS011;7116;52.152;5.392;2022-10-23T09:17:36;10.73;;;4.65;;
14080;SDS011;7116;52.152;5.392;2022-10-23T09:19:36;7.78;;;4.55;;
14080;SDS011;7116;52.152;5.392;2022-10-23T09:22:01;6.23;;;3.80;;
14080;SDS011;7116;52.152;5.392;2022-10-23T09:24:27;8.63;;;5.27;;
14080;SDS011;7116;52.152;5.392;2022-10-23T09:26:56;9.30;;;4.30;;
14080;SDS011;7116;52.152;5.392;2022-10-23T09:29:34;8.45;;;4.82;;
14080;SDS011;7116;52.152;5.392;2022-10-23T09:32:03;11.88;;;4.57;;
14080;SDS011;7116;52.152;5.392;2022-10-23T09:34:29;8.85;;;4.05;;
14080;SDS011;7116;52.152;5.392;2022-10-23T09:36:58;10.70;;;4.05;;
14080;SDS011;7116;52.152;5.392;2022-10-23T09:39:25;8.63;;;3.70;;
14080;SDS011;7116;52.152;5.392;2022-10-23T09:41:52;10.52;;;4.40;;
14080;SDS011;7116;52.152;5.392;2022-10-23T09:46:45;6.45;;;4.00;;
14080;SDS011;7116;52.152;5.392;2022-10-23T09:49:17;5.57;;;3.80;;
14080;SDS011;7116;52.152;5.392;2022-10-23T09:54:44;12.15;;;4.22;;
14080;SDS011;7116;52.152;5.392;2022-10-23T09:59:38;7.07;;;4.38;;
14080;SDS011;7116;52.152;5.392;2022-10-23T10:02:17;8.47;;;4.40;;
14080;SDS011;7116;52.152;5.392;2022-10-23T10:04:43;11.00;;;3.85;;
14080;SDS011;7116;52.152;5.392;2022-10-23T10:07:19;7.27;;;4.57;;
14080;SDS011;7116;52.152;5.392;2022-10-23T10:09:45;8.23;;;4.80;;
14080;SDS011;7116;52.152;5.392;2022-10-23T10:12:14;6.80;;;3.90;;
14080;SDS011;7116;52.152;5.392;2022-10-23T10:14:48;6.07;;;3.95;;
14080;SDS011;7116;52.152;5.392;2022-10-23T10:19:56;10.32;;;4.25;;
14080;SDS011;7116;52.152;5.392;2022-10-23T10:22:41;8.43;;;4.28;;
14080;SDS011;7116;52.152;5.392;2022-10-23T10:25:12;8.38;;;3.97;;
14080;SDS011;7116;52.152;5.392;2022-10-23T10:27:47;8.68;;;3.90;;
14080;SDS011;7116;52.152;5.392;2022-10-23T10:30:17;10.10;;;4.43;;
14080;SDS011;7116;52.152;5.392;2022-10-23T10:38:05;9.02;;;3.85;;
14080;SDS011;7116;52.152;5.392;2022-10-23T10:40:37;10.73;;;4.38;;
14080;SDS011;7116;52.152;5.392;2022-10-23T10:43:17;9.40;;;3.43;;
14080;SDS011;7116;52.152;5.392;2022-10-23T10:58:03;5.22;;;3.83;;
14080;SDS011;7116;52.152;5.392;2022-10-23T11:00:30;7.00;;;3.97;;
14080;SDS011;7116;52.152;5.392;2022-10-23T11:03:02;6.27;;;3.70;;
14080;SDS011;7116;52.152;5.392;2022-10-23T11:05:31;7.50;;;4.30;;
14080;SDS011;7116;52.152;5.392;2022-10-23T11:08:04;5.75;;;3.28;;
14080;SDS011;7116;52.152;5.392;2022-10-23T11:10:31;7.20;;;3.45;;
14080;SDS011;7116;52.152;5.392;2022-10-23T11:12:56;6.37;;;3.40;;
14080;SDS011;7116;52.152;5.392;2022-10-23T11:15:29;9.40;;;4.70;;
14080;SDS011;7116;52.152;5.392;2022-10-23T11:17:58;14.20;;;3.72;;
14080;SDS011;7116;52.152;5.392;2022-10-23T11:35:38;12.67;;;3.70;;
14080;SDS011;7116;52.152;5.392;2022-10-23T11:38:08;10.13;;;3.17;;
14080;SDS011;7116;52.152;5.392;2022-10-23T11:40:42;7.57;;;3.67;;
14080;SDS011;7116;52.152;5.392;2022-10-23T11:43:08;6.35;;;3.53;;
14080;SDS011;7116;52.152;5.392;2022-10-23T11:45:37;7.20;;;3.60;;
14080;SDS011;7116;52.152;5.392;2022-10-23T11:48:04;8.18;;;3.25;;
14080;SDS011;7116;52.152;5.392;2022-10-23T11:50:31;8.48;;;3.50;;
14080;SDS011;7116;52.152;5.392;2022-10-23T11:55:23;5.23;;;3.10;;
14080;SDS011;7116;52.152;5.392;2022-10-23T12:00:33;6.22;;;3.28;;
14080;SDS011;7116;52.152;5.392;2022-10-23T12:03:01;11.30;;;3.72;;
14080;SDS011;7116;52.152;5.392;2022-10-23T12:05:29;11.83;;;3.47;;
14080;SDS011;7116;52.152;5.392;2022-10-23T12:07:57;11.13;;;3.75;;
14080;SDS011;7116;52.152;5.392;2022-10-23T12:10:25;7.68;;;3.90;;
14080;SDS011;7116;52.152;5.392;2022-10-23T12:12:54;8.23;;;3.40;;
14080;SDS011;7116;52.152;5.392;2022-10-23T12:15:20;5.88;;;3.08;;
14080;SDS011;7116;52.152;5.392;2022-10-23T12:17:46;4.28;;;3.15;;
14080;SDS011;7116;52.152;5.392;2022-10-23T12:22:41;7.37;;;2.93;;
14080;SDS011;7116;52.152;5.392;2022-10-23T12:25:13;8.50;;;3.38;;
14080;SDS011;7116;52.152;5.392;2022-10-23T12:35:11;3.80;;;2.80;;
14080;SDS011;7116;52.152;5.392;2022-10-23T12:40:18;7.55;;;3.45;;
14080;SDS011;7116;52.152;5.392;2022-10-23T12:42:48;7.38;;;3.78;;
14080;SDS011;7116;52.152;5.392;2022-10-23T12:45:24;7.40;;;2.88;;
14080;SDS011;7116;52.152;5.392;2022-10-23T12:47:50;7.80;;;3.30;;
14080;SDS011;7116;52.152;5.392;2022-10-23T12:50:20;6.27;;;3.57;;
14080;SDS011;7116;52.152;5.392;2022-10-23T12:52:54;7.93;;;3.28;;
14080;SDS011;7116;52.152;5.392;2022-10-23T12:55:20;10.40;;;3.80;;
14080;SDS011;7116;52.152;5.392;2022-10-23T12:57:45;8.77;;;3.10;;
14080;SDS011;7116;52.152;5.392;2022-10-23T13:00:18;7.50;;;3.27;;
14080;SDS011;7116;52.152;5.392;2022-10-23T13:02:44;11.15;;;3.50;;
14080;SDS011;7116;52.152;5.392;2022-10-23T13:05:10;12.47;;;3.50;;
14080;SDS011;7116;52.152;5.392;2022-10-23T13:07:39;8.27;;;3.40;;
14080;SDS011;7116;52.152;5.392;2022-10-23T13:10:06;11.27;;;3.63;;
14080;SDS011;7116;52.152;5.392;2022-10-23T13:12:35;7.30;;;3.40;;
14080;SDS011;7116;52.152;5.392;2022-10-23T13:17:44;6.78;;;3.25;;
14080;SDS011;7116;52.152;5.392;2022-10-23T13:20:31;6.53;;;3.20;;
14080;SDS011;7116;52.152;5.392;2022-10-23T13:22:59;11.15;;;3.83;;
14080;SDS011;7116;52.152;5.392;2022-10-23T13:27:50;10.07;;;3.90;;
14080;SDS011;7116;52.152;5.392;2022-10-23T13:30:26;9.17;;;3.50;;
14080;SDS011;7116;52.152;5.392;2022-10-23T13:32:51;9.13;;;5.30;;
14080;SDS011;7116;52.152;5.392;2022-10-23T13:35:20;9.03;;;4.50;;
14080;SDS011;7116;52.152;5.392;2022-10-23T13:37:46;9.30;;;4.93;;
14080;SDS011;7116;52.152;5.392;2022-10-23T13:40:20;8.50;;;3.80;;
14080;SDS011;7116;52.152;5.392;2022-10-23T13:42:47;9.52;;;5.15;;
14080;SDS011;7116;52.152;5.392;2022-10-23T13:45:15;14.32;;;6.25;;
14080;SDS011;7116;52.152;5.392;2022-10-23T13:47:42;7.57;;;4.30;;
14080;SDS011;7116;52.152;5.392;2022-10-23T13:50:07;13.07;;;6.43;;
14080;SDS011;7116;52.152;5.392;2022-10-23T13:52:35;13.88;;;5.20;;
14080;SDS011;7116;52.152;5.392;2022-10-23T13:55:00;9.93;;;5.60;;
14080;SDS011;7116;52.152;5.392;2022-10-23T13:57:25;20.63;;;10.47;;
14080;SDS011;7116;52.152;5.392;2022-10-23T13:59:50;12.18;;;6.47;;
14080;SDS011;7116;52.152;5.392;2022-10-23T14:02:20;14.03;;;6.97;;
14080;SDS011;7116;52.152;5.392;2022-10-23T14:04:46;14.88;;;5.75;;
14080;SDS011;7116;52.152;5.392;2022-10-23T14:07:11;10.73;;;4.87;;
14080;SDS011;7116;52.152;5.392;2022-10-23T14:09:36;11.80;;;4.43;;
14080;SDS011;7116;52.152;5.392;2022-10-23T14:12:01;11.07;;;5.37;;
14080;SDS011;7116;52.152;5.392;2022-10-23T14:14:26;11.93;;;6.43;;
14080;SDS011;7116;52.152;5.392;2022-10-23T14:16:52;13.40;;;5.80;;
14080;SDS011;7116;52.152;5.392;2022-10-23T14:19:18;15.23;;;7.03;;
14080;SDS011;7116;52.152;5.392;2022-10-23T14:21:43;10.20;;;4.43;;
14080;SDS011;7116;52.152;5.392;2022-10-23T14:24:08;8.90;;;4.97;;
14080;SDS011;7116;52.152;5.392;2022-10-23T14:26:33;9.70;;;4.77;;
14080;SDS011;7116;52.152;5.392;2022-10-23T14:28:59;9.00;;;4.17;;
14080;SDS011;7116;52.152;5.392;2022-10-23T14:31:24;7.07;;;3.77;;
14080;SDS011;7116;52.152;5.392;2022-10-23T14:33:50;10.40;;;4.30;;
14080;SDS011;7116;52.152;5.392;2022-10-23T14:36:16;6.70;;;4.15;;
14080;SDS011;7116;52.152;5.392;2022-10-23T14:38:41;7.23;;;3.97;;
14080;SDS011;7116;52.152;5.392;2022-10-23T14:41:13;7.43;;;4.10;;
14080;SDS011;7116;52.152;5.392;2022-10-23T14:43:39;9.90;;;3.85;;
14080;SDS011;7116;52.152;5.392;2022-10-23T14:46:12;8.57;;;3.47;;
14080;SDS011;7116;52.152;5.392;2022-10-23T14:48:37;7.60;;;4.30;;
14080;SDS011;7116;52.152;5.392;2022-10-23T14:51:04;9.13;;;4.07;;
14080;SDS011;7116;52.152;5.392;2022-10-23T14:53:29;10.88;;;4.68;;
14080;SDS011;7116;52.152;5.392;2022-10-23T14:55:59;8.30;;;3.97;;
14080;SDS011;7116;52.152;5.392;2022-10-23T14:58:24;12.30;;;5.57;;
14080;SDS011;7116;52.152;5.392;2022-10-23T15:00:58;13.93;;;5.50;;
14080;SDS011;7116;52.152;5.392;2022-10-23T15:03:24;14.47;;;6.10;;
14080;SDS011;7116;52.152;5.392;2022-10-23T15:05:49;11.85;;;6.10;;
14080;SDS011;7116;52.152;5.392;2022-10-23T15:08:14;7.63;;;4.77;;
14080;SDS011;7116;52.152;5.392;2022-10-23T15:10:40;10.20;;;4.27;;
14080;SDS011;7116;52.152;5.392;2022-10-23T15:13:05;13.17;;;5.83;;
14080;SDS011;7116;52.152;5.392;2022-10-23T15:15:30;11.07;;;6.27;;
14080;SDS011;7116;52.152;5.392;2022-10-23T15:17:55;11.63;;;5.17;;
14080;SDS011;7116;52.152;5.392;2022-10-23T15:20:20;8.73;;;4.60;;
14080;SDS011;7116;52.152;5.392;2022-10-23T15:22:46;7.78;;;3.85;;
14080;SDS011;7116;52.152;5.392;2022-10-23T15:25:11;8.20;;;3.40;;
14080;SDS011;7116;52.152;5.392;2022-10-23T15:27:37;14.60;;;3.80;;
14080;SDS011;7116;52.152;5.392;2022-10-23T15:30:02;8.60;;;3.60;;
14080;SDS011;7116;52.152;5.392;2022-10-23T15:32:27;10.37;;;3.40;;
14080;SDS011;7116;52.152;5.392;2022-10-23T15:34:52;6.63;;;3.63;;
14080;SDS011;7116;52.152;5.392;2022-10-23T15:37:19;7.88;;;3.67;;
14080;SDS011;7116;52.152;5.392;2022-10-23T15:39:44;9.27;;;2.90;;
14080;SDS011;7116;52.152;5.392;2022-10-23T15:42:09;6.63;;;3.10;;
14080;SDS011;7116;52.152;5.392;2022-10-23T15:44:34;7.13;;;3.40;;
14080;SDS011;7116;52.152;5.392;2022-10-23T15:46:59;9.27;;;4.00;;
14080;SDS011;7116;52.152;5.392;2022-10-23T15:49:25;7.60;;;3.47;;
14080;SDS011;7116;52.152;5.392;2022-10-23T15:51:53;9.77;;;3.67;;
14080;SDS011;7116;52.152;5.392;2022-10-23T15:54:18;8.33;;;3.90;;
14080;SDS011;7116;52.152;5.392;2022-10-23T15:56:49;6.05;;;3.40;;
14080;SDS011;7116;52.152;5.392;2022-10-23T15:59:15;7.28;;;3.85;;
14080;SDS011;7116;52.152;5.392;2022-10-23T16:01:40;9.52;;;3.78;;
14080;SDS011;7116;52.152;5.392;2022-10-23T16:04:05;6.43;;;3.70;;
14080;SDS011;7116;52.152;5.392;2022-10-23T16:06:30;9.57;;;4.37;;
14080;SDS011;7116;52.152;5.392;2022-10-23T16:08:56;5.27;;;3.40;;
14080;SDS011;7116;52.152;5.392;2022-10-23T16:11:25;6.67;;;3.53;;
14080;SDS011;7116;52.152;5.392;2022-10-23T16:13:52;6.60;;;3.10;;
14080;SDS011;7116;52.152;5.392;2022-10-23T16:16:17;9.87;;;4.40;;
14080;SDS011;7116;52.152;5.392;2022-10-23T16:18:43;11.97;;;3.93;;
14080;SDS011;7116;52.152;5.392;2022-10-23T16:21:14;13.02;;;4.53;;
14080;SDS011;7116;52.152;5.392;2022-10-23T16:23:39;5.97;;;3.38;;
14080;SDS011;7116;52.152;5.392;2022-10-23T16:26:05;11.60;;;3.40;;